createdAt,value
2019-05-22T00:00:41.622Z,21.70
2019-05-22T00:03:15.664Z,21.15
2019-05-22T00:05:47.972Z,20.70
2019-05-22T00:08:19.448Z,21.40
2019-05-22T00:10:50.207Z,21.17
2019-05-22T00:13:23.987Z,21.20
2019-05-22T00:15:54.500Z,21.68
2019-05-22T00:18:26.034Z,22.20
2019-05-22T00:20:57.159Z,24.05
2019-05-22T00:23:28.609Z,21.82
2019-05-22T00:25:58.471Z,21.82
2019-05-22T00:28:30.333Z,21.45
2019-05-22T00:31:01.374Z,22.07
2019-05-22T00:33:32.578Z,21.73
2019-05-22T00:36:04.581Z,22.10
2019-05-22T00:38:36.217Z,21.87
2019-05-22T00:41:07.606Z,21.80
2019-05-22T00:43:42.414Z,21.60
2019-05-22T00:46:16.966Z,21.25
2019-05-22T00:48:47.785Z,21.35
2019-05-22T00:51:27.254Z,20.80
2019-05-22T00:54:16.662Z,20.80
2019-05-22T00:57:03.855Z,23.00
2019-05-22T00:59:35.033Z,22.10
2019-05-22T01:02:07.487Z,23.32
2019-05-22T01:04:41.171Z,23.83
2019-05-22T01:07:18.311Z,22.85
2019-05-22T01:09:51.867Z,23.50
2019-05-22T01:12:29.604Z,23.80
2019-05-22T01:15:04.229Z,25.25
2019-05-22T01:17:36.614Z,24.98
2019-05-22T01:20:10.546Z,24.65
2019-05-22T01:22:42.358Z,25.10
2019-05-22T01:25:17.256Z,24.25
2019-05-22T01:27:48.952Z,25.10
2019-05-22T01:30:40.542Z,24.60
2019-05-22T01:33:14.113Z,23.40
2019-05-22T01:35:50.510Z,21.80
2019-05-22T01:38:23.009Z,22.33
2019-05-22T01:40:58.363Z,23.03
2019-05-22T01:43:30.185Z,23.13
2019-05-22T01:46:03.019Z,21.25
2019-05-22T01:48:37.330Z,20.43
2019-05-22T01:51:10.598Z,21.10
2019-05-22T01:53:42.076Z,20.02
2019-05-22T01:56:13.301Z,19.70
2019-05-22T01:58:45.397Z,19.77
2019-05-22T02:01:21.567Z,19.48
2019-05-22T02:03:54.328Z,18.75
2019-05-22T02:06:24.981Z,18.57
2019-05-22T02:09:11.061Z,18.15
2019-05-22T02:11:42.091Z,17.60
2019-05-22T02:14:15.310Z,17.23
2019-05-22T02:16:56.898Z,17.62
2019-05-22T02:19:22.463Z,17.27
2019-05-22T02:21:53.967Z,17.95
2019-05-22T02:24:23.850Z,17.52
2019-05-22T02:26:55.027Z,17.15
2019-05-22T02:29:26.348Z,16.57
2019-05-22T02:31:58.716Z,16.27
2019-05-22T02:34:30.051Z,16.95
2019-05-22T02:37:00.192Z,17.37
2019-05-22T02:39:35.147Z,17.98
2019-05-22T02:42:11.764Z,19.37
2019-05-22T02:44:45.069Z,18.52
2019-05-22T02:47:19.751Z,19.80
2019-05-22T02:49:50.078Z,18.37
2019-05-22T02:52:21.075Z,20.23
2019-05-22T02:54:51.094Z,20.35
2019-05-22T02:57:21.892Z,20.85
2019-05-22T02:59:53.561Z,20.53
2019-05-22T03:02:25.380Z,20.72
2019-05-22T03:05:00.531Z,20.97
2019-05-22T03:07:31.414Z,21.05
2019-05-22T03:10:03.997Z,21.62
2019-05-22T03:12:36.258Z,21.90
2019-05-22T03:15:09.342Z,20.88
2019-05-22T03:17:41.876Z,21.60
2019-05-22T03:20:13.846Z,21.27
2019-05-22T03:22:52.210Z,21.60
2019-05-22T03:25:23.191Z,21.42
2019-05-22T03:27:53.817Z,22.30
2019-05-22T03:30:27.514Z,22.40
2019-05-22T03:32:59.225Z,23.20
2019-05-22T03:35:33.182Z,22.95
2019-05-22T03:38:04.378Z,23.47
2019-05-22T03:40:34.747Z,24.60
2019-05-22T03:43:16.547Z,23.45
2019-05-22T03:45:47.832Z,24.00
2019-05-22T03:48:17.731Z,24.23
2019-05-22T03:50:47.790Z,24.00
2019-05-22T03:53:19.626Z,24.60
2019-05-22T03:55:50.818Z,24.02
2019-05-22T03:58:22.107Z,23.27
2019-05-22T04:00:55.100Z,23.52
2019-05-22T04:03:26.215Z,24.60
2019-05-22T04:05:59.466Z,23.20
2019-05-22T04:08:30.885Z,22.90
2019-05-22T04:11:03.398Z,23.55
2019-05-22T04:13:34.234Z,23.80
2019-05-22T04:16:06.588Z,23.67
2019-05-22T04:18:37.384Z,23.40
2019-05-22T04:21:08.006Z,23.55
2019-05-22T04:23:39.254Z,23.32
2019-05-22T04:26:11.894Z,22.62
2019-05-22T04:28:49.464Z,22.30
2019-05-22T04:31:20.587Z,21.62
2019-05-22T04:33:50.476Z,20.73
2019-05-22T04:36:21.399Z,21.65
2019-05-22T04:38:52.464Z,22.20
2019-05-22T04:41:22.765Z,20.35
2019-05-22T04:43:53.497Z,20.32
2019-05-22T04:46:23.951Z,20.77
2019-05-22T04:48:55.545Z,20.48
2019-05-22T04:51:27.286Z,21.40
2019-05-22T04:53:57.990Z,22.17
2019-05-22T04:56:29.270Z,21.60
2019-05-22T04:59:01.794Z,20.62
2019-05-22T05:01:32.258Z,20.75
2019-05-22T05:04:02.906Z,20.75
2019-05-22T05:06:36.048Z,20.17
2019-05-22T05:09:09.974Z,21.15
2019-05-22T05:11:40.582Z,20.35
2019-05-22T05:14:10.497Z,20.12
2019-05-22T05:16:40.342Z,20.08
2019-05-22T05:19:10.264Z,20.50
2019-05-22T05:21:40.185Z,20.95
2019-05-22T05:24:10.123Z,20.37
2019-05-22T05:26:40.156Z,21.35
2019-05-22T05:29:26.572Z,21.17
2019-05-22T05:31:58.980Z,21.42
2019-05-22T05:34:39.748Z,21.65
2019-05-22T05:37:11.705Z,22.22
2019-05-22T05:40:26.605Z,23.40
2019-05-22T05:42:57.338Z,21.15
2019-05-22T05:45:28.407Z,21.60
2019-05-22T05:47:59.276Z,21.13
2019-05-22T05:50:38.784Z,21.00
2019-05-22T05:53:03.298Z,22.10
2019-05-22T05:56:22.944Z,21.10
2019-05-22T05:58:53.611Z,20.92
2019-05-22T06:01:30.441Z,19.67
2019-05-22T06:04:01.889Z,20.30
2019-05-22T06:07:13.534Z,18.77
2019-05-22T06:09:44.666Z,18.17
2019-05-22T06:12:14.541Z,18.10
2019-05-22T06:14:45.561Z,18.25
2019-05-22T06:18:05.450Z,17.90
2019-05-22T06:20:36.483Z,16.75
2019-05-22T06:23:52.229Z,16.33
2019-05-22T06:26:41.988Z,14.73
2019-05-22T06:29:13.533Z,15.68
2019-05-22T06:31:55.844Z,13.75
2019-05-22T06:34:26.310Z,12.73
2019-05-22T06:36:58.752Z,12.25
2019-05-22T06:39:29.196Z,11.08
2019-05-22T06:42:00.154Z,10.10
2019-05-22T06:44:32.697Z,10.45
2019-05-22T06:47:02.919Z,8.98
2019-05-22T06:49:58.706Z,8.53
2019-05-22T06:52:28.861Z,7.65
2019-05-22T06:54:58.924Z,8.00
2019-05-22T06:57:34.503Z,7.67
2019-05-22T07:00:22.741Z,7.97
2019-05-22T07:02:52.937Z,8.10
2019-05-22T07:05:24.690Z,8.80
2019-05-22T07:07:55.148Z,10.13
2019-05-22T07:10:26.237Z,9.93
2019-05-22T07:12:57.725Z,10.75
2019-05-22T07:15:54.123Z,11.70
2019-05-22T07:18:28.858Z,11.15
2019-05-22T07:20:59.646Z,10.63
2019-05-22T07:23:31.926Z,10.25
2019-05-22T07:26:04.086Z,10.03
2019-05-22T07:28:35.110Z,8.88
2019-05-22T07:31:05.934Z,8.78
2019-05-22T07:33:36.251Z,7.83
2019-05-22T07:36:10.873Z,7.03
2019-05-22T07:38:38.378Z,7.30
2019-05-22T07:41:09.450Z,7.03
2019-05-22T07:43:41.495Z,6.75
2019-05-22T07:46:11.545Z,7.20
2019-05-22T07:48:42.430Z,7.03
2019-05-22T07:51:12.444Z,6.80
2019-05-22T07:53:42.862Z,6.60
2019-05-22T07:56:14.683Z,6.75
2019-05-22T07:58:44.799Z,6.33
2019-05-22T08:01:17.878Z,6.08
2019-05-22T08:03:49.391Z,6.90
2019-05-22T08:06:20.006Z,6.20
2019-05-22T08:08:52.526Z,6.37
2019-05-22T08:11:25.197Z,5.83
2019-05-22T08:13:56.870Z,6.65
2019-05-22T08:16:30.543Z,6.30
2019-05-22T08:19:00.661Z,7.28
2019-05-22T08:21:32.278Z,7.00
2019-05-22T08:24:02.866Z,6.37
2019-05-22T08:26:33.465Z,6.85
2019-05-22T08:29:04.962Z,6.90
2019-05-22T08:31:35.318Z,6.60
2019-05-22T08:34:06.375Z,6.65
2019-05-22T08:36:38.777Z,7.03
2019-05-22T08:39:10.634Z,7.62
2019-05-22T08:41:42.689Z,7.40
2019-05-22T08:44:16.908Z,9.08
2019-05-22T08:46:46.027Z,7.42
2019-05-22T08:49:17.236Z,7.58
2019-05-22T08:51:47.226Z,7.05
2019-05-22T08:54:17.990Z,7.00
2019-05-22T08:56:51.504Z,6.83
2019-05-22T08:59:22.029Z,6.83
2019-05-22T09:01:52.196Z,6.83
2019-05-22T09:04:22.242Z,7.07
2019-05-22T09:06:52.051Z,7.65
2019-05-22T09:09:22.562Z,7.92
2019-05-22T09:11:52.467Z,8.73
2019-05-22T09:14:23.452Z,9.55
2019-05-22T09:16:54.083Z,9.35
2019-05-22T09:19:23.977Z,10.68
2019-05-22T09:21:53.854Z,10.58
2019-05-22T09:24:26.040Z,10.93
2019-05-22T09:26:56.016Z,10.93
2019-05-22T09:29:25.955Z,11.50
2019-05-22T09:31:55.877Z,11.07
2019-05-22T09:34:26.565Z,10.70
2019-05-22T09:36:56.482Z,10.88
2019-05-22T09:39:26.556Z,11.17
2019-05-22T09:41:57.446Z,11.40
2019-05-22T09:44:27.403Z,11.40
2019-05-22T09:46:57.575Z,11.35
2019-05-22T09:49:27.464Z,12.13
2019-05-22T09:51:57.403Z,13.00
2019-05-22T09:54:27.730Z,13.98
2019-05-22T09:56:57.755Z,14.15
2019-05-22T09:59:27.705Z,15.28
2019-05-22T10:01:57.779Z,14.70
2019-05-22T10:04:27.790Z,14.17
2019-05-22T10:06:57.632Z,15.05
2019-05-22T10:09:28.259Z,14.15
2019-05-22T10:11:58.549Z,15.60
2019-05-22T10:14:28.599Z,15.03
2019-05-22T10:16:58.606Z,16.20
2019-05-22T10:19:29.786Z,15.60
2019-05-22T10:22:00.285Z,16.60
2019-05-22T10:24:30.495Z,17.10
2019-05-22T10:27:00.675Z,16.93
2019-05-22T10:29:32.360Z,15.88
2019-05-22T10:32:02.572Z,14.85
2019-05-22T10:34:32.723Z,15.53
2019-05-22T10:37:03.966Z,16.60
2019-05-22T10:39:34.222Z,15.72
2019-05-22T10:42:04.593Z,16.62
2019-05-22T10:44:34.844Z,17.45
2019-05-22T10:47:06.427Z,17.52
2019-05-22T10:49:36.502Z,17.60
2019-05-22T10:52:06.571Z,16.93
2019-05-22T10:54:36.426Z,15.90
2019-05-22T10:57:07.761Z,16.20
2019-05-22T10:59:37.766Z,16.57
2019-05-22T11:02:09.710Z,18.43
2019-05-22T11:04:40.376Z,19.55
2019-05-22T11:07:11.239Z,18.85
2019-05-22T11:09:41.910Z,18.15
2019-05-22T11:12:13.128Z,17.90
2019-05-22T11:14:43.899Z,18.23
2019-05-22T11:17:14.376Z,17.23
2019-05-22T11:19:46.047Z,17.42
2019-05-22T11:22:17.475Z,16.80
2019-05-22T11:24:47.422Z,17.10
2019-05-22T11:27:17.737Z,17.10
2019-05-22T11:29:48.814Z,17.05
2019-05-22T11:32:19.112Z,16.93
2019-05-22T11:34:49.246Z,16.50
2019-05-22T11:37:20.758Z,16.80
2019-05-22T11:39:51.049Z,16.57
2019-05-22T11:42:21.814Z,16.52
2019-05-22T11:44:51.860Z,16.25
2019-05-22T11:47:22.329Z,16.00
2019-05-22T11:49:52.309Z,16.27
2019-05-22T11:52:22.493Z,17.20
2019-05-22T11:54:53.142Z,16.55
2019-05-22T11:57:24.312Z,17.03
2019-05-22T11:59:54.368Z,16.50
2019-05-22T12:02:25.058Z,16.57
2019-05-22T12:04:55.315Z,17.40
2019-05-22T12:07:25.541Z,16.42
2019-05-22T12:09:55.773Z,16.10
2019-05-22T12:12:26.370Z,17.57
2019-05-22T12:14:56.553Z,17.23
2019-05-22T12:17:37.708Z,17.52
2019-05-22T12:19:58.569Z,16.53
2019-05-22T12:22:28.497Z,17.62
2019-05-22T12:24:58.362Z,17.53
2019-05-22T12:27:28.418Z,17.92
2019-05-22T12:30:00.873Z,17.00
2019-05-22T12:32:32.585Z,17.40
2019-05-22T12:35:02.519Z,16.40
2019-05-22T12:37:33.694Z,16.20
2019-05-22T12:40:05.021Z,16.45
2019-05-22T12:42:35.011Z,16.80
2019-05-22T12:45:07.212Z,12.90
2019-05-22T12:47:37.632Z,14.80
2019-05-22T12:50:08.053Z,14.07
2019-05-22T12:52:38.958Z,14.63
2019-05-22T12:55:09.300Z,14.77
2019-05-22T12:57:39.735Z,15.03
2019-05-22T13:00:10.228Z,14.17
2019-05-22T13:02:42.828Z,15.93
2019-05-22T13:05:14.507Z,14.57
2019-05-22T13:07:44.440Z,14.40
2019-05-22T13:10:16.746Z,14.40
2019-05-22T13:12:46.783Z,16.40
2019-05-22T13:15:16.937Z,15.93
2019-05-22T13:17:47.497Z,13.73
2019-05-22T13:20:40.476Z,13.60
2019-05-22T13:22:56.845Z,14.50
2019-05-22T13:25:33.954Z,15.63
2019-05-22T15:47:53.273Z,10.68
2019-05-22T15:50:17.490Z,8.83
2019-05-22T15:52:53.366Z,9.97
2019-05-22T15:55:25.984Z,10.03
2019-05-22T15:57:58.956Z,10.23
2019-05-22T16:00:32.796Z,10.03
2019-05-22T16:03:10.720Z,10.20
2019-05-22T16:05:42.054Z,10.30
2019-05-22T16:08:13.841Z,10.43
2019-05-22T16:10:46.550Z,10.20
2019-05-22T16:13:19.287Z,10.47
2019-05-22T16:15:51.830Z,11.13
2019-05-22T16:18:25.414Z,10.17
2019-05-22T16:20:57.371Z,10.93
2019-05-22T16:23:28.582Z,10.30
2019-05-22T16:25:58.813Z,10.37
2019-05-22T16:28:35.213Z,9.97
2019-05-22T16:31:03.888Z,10.20
2019-05-22T16:33:35.036Z,9.80
2019-05-22T16:36:06.455Z,9.57
2019-05-22T16:38:37.443Z,9.97
2019-05-22T16:41:11.764Z,10.13
2019-05-22T16:43:49.651Z,9.17
2019-05-22T16:46:17.770Z,9.87
2019-05-22T16:48:49.416Z,9.93
2019-05-22T18:03:42.569Z,10.00
2019-05-22T18:06:12.648Z,8.87
2019-05-22T18:08:43.042Z,8.60
2019-05-22T18:11:13.178Z,8.43
2019-05-22T18:13:58.725Z,8.40
2019-05-22T18:16:28.779Z,8.70
2019-05-22T18:19:00.059Z,8.43
2019-05-22T18:21:31.154Z,9.13
2019-05-22T18:24:01.389Z,9.57
2019-05-22T18:26:31.648Z,9.07
2019-05-22T18:29:01.682Z,9.90
2019-05-22T18:31:31.724Z,8.13
2019-05-22T18:34:01.911Z,8.23
2019-05-22T18:36:31.950Z,8.80
2019-05-22T18:39:03.111Z,8.63
2019-05-22T18:41:33.395Z,9.07
2019-05-22T18:44:03.906Z,8.80
2019-05-22T18:46:34.250Z,8.37
2019-05-22T18:49:04.704Z,8.20
2019-05-22T18:51:35.069Z,8.73
2019-05-22T18:54:05.135Z,9.20
2019-05-22T18:56:35.264Z,8.93
2019-05-22T18:59:05.246Z,8.43
2019-05-22T19:01:36.243Z,8.33
2019-05-22T19:04:06.219Z,7.57
2019-05-22T19:06:36.383Z,7.70
2019-05-22T19:09:09.937Z,7.93
2019-05-22T19:11:40.651Z,8.37
2019-05-22T19:14:11.273Z,8.33
2019-05-22T19:16:41.266Z,8.03
2019-05-22T19:19:11.309Z,9.23
2019-05-22T19:21:41.551Z,7.90
2019-05-22T19:24:11.474Z,7.77
2019-05-22T19:26:41.491Z,7.77
2019-05-22T19:29:11.733Z,7.93
2019-05-22T19:31:41.753Z,9.97
2019-05-22T19:34:12.224Z,9.27
2019-05-22T19:36:43.661Z,8.60
2019-05-22T19:39:13.601Z,9.83
2019-05-22T19:41:43.763Z,9.87
2019-05-22T19:44:15.064Z,10.67
2019-05-22T19:46:45.225Z,12.30
2019-05-22T19:49:16.248Z,10.93
2019-05-22T19:51:46.514Z,10.00
2019-05-22T19:54:16.710Z,11.38
2019-05-22T19:56:46.715Z,10.07
2019-05-22T19:59:16.671Z,11.68
2019-05-22T20:01:46.672Z,10.50
2019-05-22T20:04:16.822Z,11.43
2019-05-22T20:06:46.953Z,10.90
2019-05-22T20:09:17.163Z,13.50
2019-05-22T20:11:47.137Z,12.23
2019-05-22T20:14:17.618Z,9.83
2019-05-22T20:16:48.183Z,11.60
2019-05-22T20:19:18.957Z,11.30
2019-05-22T20:21:49.491Z,13.43
2019-05-22T20:24:19.452Z,13.27
2019-05-22T20:26:49.384Z,12.20
2019-05-22T20:29:19.846Z,12.53
2019-05-22T20:31:50.191Z,12.10
2019-05-22T20:34:20.495Z,13.47
2019-05-22T20:36:50.403Z,13.53
2019-05-22T20:39:22.161Z,12.13
2019-05-22T20:41:52.286Z,11.90
2019-05-22T20:44:22.864Z,12.87
2019-05-22T20:46:53.314Z,13.95
2019-05-22T20:49:23.371Z,13.05
2019-05-22T20:51:54.840Z,13.48
2019-05-22T20:54:26.802Z,13.70
2019-05-22T20:56:56.789Z,13.32
2019-05-22T20:59:27.520Z,14.07
2019-05-22T21:01:58.334Z,13.70
2019-05-22T21:04:29.958Z,14.10
2019-05-22T21:07:03.333Z,14.35
2019-05-22T21:09:35.181Z,14.23
2019-05-22T21:12:07.273Z,14.23
2019-05-22T21:14:37.922Z,13.48
2019-05-22T21:17:09.454Z,12.98
2019-05-22T21:19:41.401Z,13.83
2019-05-22T21:22:13.710Z,13.40
2019-05-22T21:24:44.195Z,13.47
2019-05-22T21:27:14.995Z,14.07
2019-05-22T21:29:45.344Z,13.68
2019-05-22T21:32:17.265Z,14.38
2019-05-22T21:34:47.324Z,14.10
2019-05-22T21:37:19.661Z,13.88
2019-05-22T21:39:50.530Z,13.25
2019-05-22T21:42:20.985Z,14.05
2019-05-22T21:44:50.942Z,13.78
2019-05-22T21:47:21.572Z,13.62
2019-05-22T21:49:52.339Z,13.28
2019-05-22T21:52:23.147Z,13.30
2019-05-22T21:54:53.181Z,13.70
2019-05-22T21:57:23.466Z,13.65
2019-05-22T21:59:53.614Z,13.10
2019-05-22T22:02:32.608Z,13.97
2019-05-22T22:05:02.854Z,13.68
2019-05-22T22:07:32.779Z,13.55
2019-05-22T22:10:02.727Z,13.50
2019-05-22T22:12:33.594Z,13.88
2019-05-22T22:15:04.841Z,12.68
2019-05-22T22:17:37.212Z,12.95
2019-05-22T22:20:07.614Z,12.68
2019-05-22T22:22:38.054Z,12.98
2019-05-22T22:25:09.288Z,13.43
2019-05-22T22:27:39.752Z,13.70
2019-05-22T22:30:19.591Z,13.68
2019-05-22T22:32:50.464Z,13.60
2019-05-22T22:35:22.630Z,13.48
2019-05-22T22:37:52.461Z,13.43
2019-05-22T22:40:24.561Z,13.70
2019-05-22T22:42:54.692Z,13.47
2019-05-22T22:45:35.650Z,14.45
2019-05-22T22:48:06.028Z,13.58
2019-05-22T22:50:36.063Z,13.10
2019-05-22T22:53:08.042Z,13.72
2019-05-22T22:55:42.059Z,13.90
2019-05-22T22:58:17.174Z,13.70
2019-05-22T23:00:46.290Z,13.53
2019-05-22T23:03:19.818Z,14.18
2019-05-22T23:05:51.219Z,13.25
2019-05-22T23:08:26.028Z,13.50
2019-05-22T23:10:56.240Z,13.10
2019-05-22T23:13:26.143Z,12.33
2019-05-22T23:15:56.460Z,11.60
2019-05-22T23:19:11.457Z,11.80
2019-05-22T23:21:40.316Z,11.87
2019-05-22T23:24:10.680Z,11.93
2019-05-22T23:26:41.576Z,12.63
2019-05-22T23:29:12.481Z,13.07
2019-05-22T23:31:42.473Z,12.57
2019-05-22T23:34:12.949Z,12.63
2019-05-22T23:36:45.289Z,13.47
2019-05-22T23:39:17.819Z,12.30
2019-05-22T23:41:48.819Z,13.10
2019-05-22T23:44:21.422Z,13.27
2019-05-22T23:46:51.300Z,13.23
2019-05-22T23:49:21.331Z,12.97
2019-05-22T23:51:51.482Z,12.87
2019-05-22T23:54:22.694Z,12.03
2019-05-22T23:56:54.351Z,13.20
2019-05-22T23:59:24.415Z,13.33
